»·PEaware :: N345SP KBFL-KSNA

N345SP :: KBFL-KSNA

FLIGHT INFORMATION

Flight Status: Arrived
Operator: Privately registered:
United States
More flights under this callsign
Pilot: Ryan P. (16540)
Aircraft: GATES LEARJET LEARJET 45
(LJ45)
More flights by this aircraft type
Origin: KBFL Meadows
United States
Destination: KSNA John Wayne-Orange Co
United States
More flights between these airports :: More routes between these airports
Route: +MEADO3 FIM TANDY4
File this flight plan on PilotEdge
Remarks: limited gps nav database (fsx stock gps) but can fly this routing rnav even though filing / A. autopilot sometimes jams.
Altitude:
(Current/Filed)
17,000ft
Speed:
(Current/Filed)
346kts
Departed: 05-Oct-17 08:56 PM
Arrived: 05-Oct-17 09:35 PM
Distance/Time
Traveled:
121nm/0:38
Distance/Time
To Go:
Arrived

Flight Plot

Page will automatically refresh every two minutes.

Flight plan parsing failed; only flown route is shown


Map Options




Map Legend


Flown Route
Filed Route
Departure Airport
Arrival Airport
Navaid (VOR, NDB)
Fix

Horizontal Profiles

Position Reports

Time Latitude Longitude Heading Altitude Ground
Speed
05-Oct-17 20:52 35.426699 -119.043323 262 511ft 0kts
05-Oct-17 20:53 35.426698 -119.043329 262 511ft 0kts
05-Oct-17 20:54 35.426698 -119.043335 262 511ft 0kts
05-Oct-17 20:55 35.426697 -119.043342 262 511ft 0kts
05-Oct-17 20:56 35.426697 -119.043348 262 511ft 0kts
05-Oct-17 20:57 35.426696 -119.043354 262 511ft 0kts
05-Oct-17 20:58 35.426658 -119.043745 262 511ft 10kts
05-Oct-17 20:59 35.425919 -119.045940 264 511ft 7kts
05-Oct-17 21:00 35.432008 -119.053876 315 511ft 122kts
05-Oct-17 21:01 35.465482 -119.096841 314 2415ft 186kts
05-Oct-17 21:02 35.481228 -119.160686 231 5011ft 254kts
05-Oct-17 21:03 35.412212 -119.178015 174 7421ft 264kts
05-Oct-17 21:04 35.338293 -119.157886 172 9633ft 284kts
05-Oct-17 21:05 35.256703 -119.134687 171 11755ft 312kts
05-Oct-17 21:06 35.170268 -119.110011 171 13862ft 325kts
05-Oct-17 21:07 35.078401 -119.084045 171 15987ft 358kts
05-Oct-17 21:08 34.975520 -119.055143 170 17008ft 412kts
05-Oct-17 21:09 34.858608 -119.022240 170 17002ft 441kts
05-Oct-17 21:10 34.738294 -118.988174 170 17000ft 446kts
05-Oct-17 21:11 34.617252 -118.954075 170 17000ft 447kts
05-Oct-17 21:12 34.496138 -118.920163 170 17000ft 447kts
05-Oct-17 21:13 34.374995 -118.886151 169 17000ft 447kts
05-Oct-17 21:14 34.255167 -118.844339 166 17000ft 449kts
05-Oct-17 21:15 34.135726 -118.800269 165 17000ft 449kts
05-Oct-17 21:16 34.018281 -118.757299 166 16066ft 418kts
05-Oct-17 21:17 33.912247 -118.718329 166 13992ft 381kts
05-Oct-17 21:18 33.802898 -118.678470 166 14003ft 422kts
05-Oct-17 21:19 33.688758 -118.637978 166 14000ft 429kts
05-Oct-17 21:20 33.574468 -118.595985 160 13990ft 429kts
05-Oct-17 21:21 33.506780 -118.503359 96 12190ft 361kts
05-Oct-17 21:22 33.502977 -118.394836 85 10402ft 331kts
05-Oct-17 21:23 33.543849 -118.307595 44 8833ft 298kts
05-Oct-17 21:24 33.603426 -118.236667 43 7130ft 299kts
05-Oct-17 21:25 33.663189 -118.176821 42 6174ft 257kts
05-Oct-17 21:26 33.716403 -118.127536 42 5159ft 228kts
05-Oct-17 21:27 33.765210 -118.083658 42 5001ft 217kts
05-Oct-17 21:28 33.812214 -118.036730 58 4584ft 216kts
05-Oct-17 21:29 33.843336 -117.978583 62 3483ft 199kts
05-Oct-17 21:30 33.869317 -117.923635 62 2996ft 175kts
05-Oct-17 21:31 33.892383 -117.872647 62 3000ft 174kts
05-Oct-17 21:32 33.915314 -117.821807 62 3000ft 174kts
05-Oct-17 21:33 33.917420 -117.768884 120 3008ft 180kts
05-Oct-17 21:34 33.873560 -117.746276 184 3005ft 199kts
05-Oct-17 21:35 33.822970 -117.776556 202 3012ft 195kts
05-Oct-17 21:36 33.778730 -117.802992 204 2144ft 163kts
05-Oct-17 21:37 33.740779 -117.827543 205 1330ft 149kts
05-Oct-17 21:38 33.703948 -117.850832 206 576ft 149kts
05-Oct-17 21:39 33.672285 -117.871010 207 60ft 33kts
05-Oct-17 21:40 33.671390 -117.873742 23 60ft 31kts
05-Oct-17 21:41 33.678442 -117.869574 43 60ft 0kts
05-Oct-17 21:42 33.678446 -117.869569 43 60ft 0kts
05-Oct-17 21:43 33.678450 -117.869564 43 60ft 0kts
05-Oct-17 21:44 33.678454 -117.869560 43 60ft 0kts
05-Oct-17 21:45 33.678454 -117.869560 43 60ft 0kts

Navigation Log

Ident Type
Flight plan parsing failed, navigation log unavailable